Terminal Aerodrome Forecast
Issued by NWS

Home | Current Version | Previous Version | Text Only | Print | Product List | Glossary On
Versions: 1 2 3 4 5 6 7 8 9 10 11 12 13 14
675
FTUS43 KDTX 051720
TAFMBS
TAF
KMBS 051720Z 0518/0618 01011KT P6SM SCT045
     FM052300 35005KT P6SM SKC=

USA.gov is the U.S. government's official web portal to all federal, state and local government web resources and services.